Charlotte, NC (28204)

8:31 AM EDT on July 26, 2016 (GMT -0400)
Plaza Midwood | | Change Station
Active Advisory: Air Quality Alert

Elev 712 ft 35.22 °N, 80.82 °W | Updated 14 seconds ago

Scattered Clouds
Scattered Clouds
81.3 °F
Feels Like 85 °F
N
6.0
Wind Variable Wind from SW
Gusts 9.8 mph

Today
High -- | Low -- °F
--% Chance of Precip.
Yesterday
High -- | Low -- °F
Precip. -- in
Pressure 30.02 in
Visibility 10.0 miles
Clouds Few 10000 ft
Scattered Clouds 25000 ft
Heat Index 85 °F
Dew Point 71 °F
Humidity 70%
Rainfall 0.00 in
Snow Depth Not available.
6:28 AM 8:31 PM
Waning Gibbous, 55% visible
METAR KCLT 261152Z 21007KT 10SM FEW100 SCT250 26/21 A3005 RMK AO2 SLP164 T02610206 10272 20239 51008
Pressure 30.02 in
Visibility 10.0 miles
Clouds Few 10000 ft
Scattered Clouds 25000 ft
Heat Index 85 °F
Dew Point 71 °F
Humidity 70%
Rainfall 0.00 in
Snow Depth Not available.
6:28 AM 8:31 PM
Waning Gibbous, 55% visible
METAR KCLT 261152Z 21007KT 10SM FEW100 SCT250 26/21 A3005 RMK AO2 SLP164 T02610206 10272 20239 51008

10-Day Weather Forecast

Almanac

Astronomy

Jul. 26, 2016 Rise Set
Actual Time
Civil Twilight
Nautical Twilight
Astronomical Twilight
Moon
Length of Visible Light
Length of Day
Tomorrow will be .
, % of the Moon is Illuminated

Today's Extremes

State Highs State Lows

Community

WunderPhotos

Upload Photos

1,927,581 photos uploaded!

WunderBlog® & News

Nearby

Air Quality

  Air Quality AQ Index Pollutant
Not available.

Snow Depth

Station Depth Elevation

Earthquake Activity

City Distance Mag. Time & Date
Minimum magnitude displayed is 2.5.

Coastal Water Temperatures

Place Temperature

Stations

Nearby Weather Stations

Station Location Temp. Windchill Dew Point Humidity Wind Precip. Elev Updated Type
                   

Watches & Warnings

Air Quality Alert
Issued: 12:56 PM EDT Jul. 25, 2016 – National Weather Service

... Air quality alert in effect until 8 PM EDT this evening...

The North Carolina department of environmental quality in Raleigh NC
has issued a code Orange air quality action day for ground level
ozone... in effect until 8 PM EDT this evening.

An air quality action day means that ground level ozone
concentrations within the region may approach or exceed unhealthy
standards. For additional information... please visit the North
Carolina division of air quality web site at
www.Ncair.Org/airaware/forecast/.


Krentz

1256 PM EDT Mon Jul 25 2016

... Air quality alert in effect until 8 PM EDT this evening...

The North Carolina department of environmental quality in Raleigh NC
has issued a code Orange air quality action day for ground level
ozone... in effect until 8 PM EDT this evening.

An air quality action day means that ground level ozone
concentrations within the region may approach or exceed unhealthy
standards. For additional information... please visit the North
Carolina division of air quality web site at
www.Ncair.Org/airaware/forecast/.


Krentz